Time;durP1;ratioP1;P1;durP2;ratioP2;P2;SDS_P1;SDS_P2;PMS_P1;PMS_P2;Temp;Humidity;BMP_temperature;BMP_pressure;BME280_temperature;BME280_humidity;BME280_pressure;Samples;Min_cycle;Max_cycle;Signal;HPM_P1;HPM_P2
2022/01/22 00:00:34;;;;;;;;;29.75;24.50;;;;;7.77;52.39;103083.53;4923700;28;46083;-77
2022/01/22 00:03:00;;;;;;;;;53.25;43.00;;;;;8.59;52.55;103225.44;4935342;28;44930;-76
2022/01/22 00:05:25;;;;;;;;;23.75;20.75;;;;;8.38;52.77;103187.44;4937272;28;45036;-77
2022/01/22 00:07:51;;;;;;;;;18.75;16.75;;;;;8.57;52.78;103214.66;4937369;28;45091;-75
2022/01/22 00:10:19;;;;;;;;;22.50;18.50;;;;;8.47;51.98;103196.16;4942171;28;45716;-76
2022/01/22 00:15:18;;;;;;;;;18.25;17.75;;;;;8.56;51.90;103214.56;4937274;28;45267;-74
2022/01/22 00:17:45;;;;;;;;;36.50;30.75;;;;;8.31;52.00;103180.72;4954101;28;45104;-75
2022/01/22 00:20:11;;;;;;;;;24.50;19.50;;;;;8.68;52.59;103220.81;4954027;28;45831;-75
2022/01/22 00:22:37;;;;;;;;;24.25;17.25;;;;;8.35;52.32;103157.91;4945191;28;45366;-75
2022/01/22 00:25:08;;;;;;;;;16.25;15.75;;;;;8.58;52.47;103178.28;4939737;28;45095;-73
2022/01/22 00:27:35;;;;;;;;;26.50;22.00;;;;;8.79;52.86;103216.25;4937191;28;45197;-75
2022/01/22 00:30:02;;;;;;;;;21.75;16.00;;;;;8.70;52.05;103204.94;4953309;28;45291;-74
2022/01/22 00:32:27;;;;;;;;;19.00;16.75;;;;;8.67;51.84;103194.97;4934940;28;45246;-74
2022/01/22 00:34:52;;;;;;;;;18.50;18.00;;;;;8.13;52.71;103092.41;4944733;28;45262;-74
2022/01/22 00:37:18;;;;;;;;;14.75;14.50;;;;;8.64;51.96;103200.06;4936448;28;45223;-76
2022/01/22 00:39:43;;;;;;;;;16.75;16.75;;;;;8.49;52.58;103170.53;4942646;28;45594;-75
2022/01/22 00:42:13;;;;;;;;;8.00;6.00;;;;;8.49;52.29;103175.88;4943379;28;45144;-77
2022/01/22 00:44:38;;;;;;;;;27.50;23.75;;;;;8.64;52.80;103198.31;4941952;28;45290;-74
2022/01/22 00:47:04;;;;;;;;;24.75;18.25;;;;;8.47;52.60;103169.50;4943982;28;45023;-76
2022/01/22 00:49:30;;;;;;;;;31.25;25.75;;;;;8.42;52.88;103155.81;4936207;28;46345;-75
2022/01/22 00:51:56;;;;;;;;;28.75;25.75;;;;;8.43;53.03;103159.44;4933110;28;45285;-75
2022/01/22 00:54:22;;;;;;;;;17.00;15.00;;;;;8.52;53.03;103165.44;4926474;28;45169;-73
2022/01/22 00:56:47;;;;;;;;;21.50;17.25;;;;;8.77;53.29;103199.22;4937247;28;45047;-76
2022/01/22 00:59:13;;;;;;;;;27.25;23.25;;;;;8.69;52.84;103181.75;4933072;28;45821;-76
2022/01/22 01:01:38;;;;;;;;;26.00;20.00;;;;;8.47;52.88;103145.53;4931035;28;45482;-74
2022/01/22 01:04:04;;;;;;;;;10.50;9.50;;;;;8.52;52.72;103153.88;4940338;28;45272;-75
2022/01/22 01:06:30;;;;;;;;;16.25;14.75;;;;;8.41;52.46;103121.06;4936100;28;45285;-76
2022/01/22 01:08:59;;;;;;;;;1.25;0.25;;;;;8.86;52.32;103210.56;4943930;28;47478;-74
2022/01/22 01:11:27;;;;;;;;;16.50;11.50;;;;;8.31;53.03;103098.16;4932338;28;45184;-75
2022/01/22 01:13:57;;;;;;;;;12.75;11.00;;;;;8.43;52.78;103119.47;4935130;28;44926;-74
2022/01/22 01:16:45;;;;;;;;;10.25;10.25;;;;;8.75;52.02;103166.22;4920583;28;45073;-75
2022/01/22 01:35:29;;;;;;;;;18.25;15.25;;;;;8.87;52.97;103182.16;4938733;28;44997;-76
2022/01/22 01:37:57;;;;;;;;;13.00;11.50;;;;;8.94;52.70;103187.13;4941598;28;45406;-77
2022/01/22 01:40:24;;;;;;;;;13.50;8.75;;;;;8.73;51.89;103150.09;4940000;28;46003;-76
2022/01/22 01:45:35;;;;;;;;;13.50;12.00;;;;;8.82;52.31;103184.50;4933691;28;45157;-75
2022/01/22 01:48:05;;;;;;;;;18.00;9.75;;;;;8.85;52.52;103184.72;4924069;28;45282;-76
2022/01/22 01:50:33;;;;;;;;;18.50;11.00;;;;;8.83;52.69;103186.34;4922354;28;47608;-75
2022/01/22 01:55:46;;;;;;;;;12.50;9.50;;;;;8.85;52.77;103192.72;4946149;28;45473;-74
2022/01/22 01:58:12;;;;;;;;;8.25;7.75;;;;;8.90;53.12;103191.31;4945277;28;45249;-75
2022/01/22 02:00:37;;;;;;;;;9.25;9.25;;;;;8.71;52.34;103159.75;4939871;28;45663;-73
2022/01/22 02:03:03;;;;;;;;;12.50;9.00;;;;;8.43;52.64;103104.44;4937156;28;44957;-74
2022/01/22 02:05:28;;;;;;;;;13.75;12.25;;;;;8.88;52.27;103190.28;4939593;28;45260;-76
2022/01/22 02:07:55;;;;;;;;;11.75;8.75;;;;;8.92;52.45;103191.41;4932043;28;45358;-75
2022/01/22 02:10:26;;;;;;;;;12.25;12.00;;;;;8.77;53.09;103160.16;4943603;28;46594;-73
2022/01/22 02:23:55;;;;;;;;;14.50;12.75;;;;;8.83;52.64;103178.34;4945009;28;45070;-75
2022/01/22 02:26:19;;;;;;;;;11.50;11.50;;;;;8.53;52.88;103143.34;4931434;28;44998;-75
2022/01/22 02:28:50;;;;;;;;;15.50;11.50;;;;;8.61;52.66;103174.13;4937022;28;45474;-76
2022/01/22 02:31:34;;;;;;;;;22.25;11.00;;;;;8.55;53.61;103186.06;4934206;28;45216;-75
2022/01/22 02:36:33;;;;;;;;;11.50;10.25;;;;;8.55;53.72;103186.06;4943597;28;45067;-75
2022/01/22 02:41:30;;;;;;;;;10.75;9.50;;;;;8.24;54.01;103120.75;4952757;28;45613;-73
2022/01/22 02:43:56;;;;;;;;;16.75;14.50;;;;;8.37;53.61;103145.66;4941052;28;45224;-75
2022/01/22 02:46:26;;;;;;;;;14.00;11.75;;;;;8.37;54.10;103151.88;4934674;28;45045;-74
2022/01/22 02:48:54;;;;;;;;;14.00;11.25;;;;;8.53;54.34;103169.03;4936134;28;45237;-73
2022/01/22 02:51:20;;;;;;;;;16.75;11.50;;;;;8.50;54.04;103169.75;4939741;28;46456;-74
2022/01/22 02:53:49;;;;;;;;;15.50;11.00;;;;;8.26;53.82;103140.41;4939972;28;44996;-74
2022/01/22 02:56:15;;;;;;;;;11.75;11.75;;;;;8.45;54.31;103163.16;4941388;28;45219;-74
2022/01/22 02:58:40;;;;;;;;;16.25;14.25;;;;;8.23;54.52;103133.94;4932057;28;45120;-74
2022/01/22 03:01:05;;;;;;;;;14.75;10.25;;;;;8.41;53.36;103147.69;4936651;28;46307;-73
2022/01/22 03:03:31;;;;;;;;;15.00;10.75;;;;;8.29;54.38;103137.06;4935632;28;45199;-73
2022/01/22 03:05:56;;;;;;;;;11.75;9.75;;;;;8.49;53.71;103162.56;4953310;28;45033;-75
2022/01/22 03:08:27;;;;;;;;;8.00;8.00;;;;;8.46;53.58;103146.34;4948321;28;45199;-75
2022/01/22 03:10:53;;;;;;;;;10.50;10.50;;;;;8.60;53.51;103158.94;4944431;28;46077;-75
2022/01/22 03:14:38;;;;;;;;;12.50;10.75;;;;;7.86;54.27;103023.00;4938366;28;45203;-75
2022/01/22 03:16:33;;;;;;;;;6.00;6.00;;;;;8.30;53.45;103099.91;4937461;28;45086;-76
2022/01/22 03:19:08;;;;;;;;;10.25;10.00;;;;;7.73;53.57;102998.94;4924238;28;45282;-74
2022/01/22 03:21:44;;;;;;;;;11.00;10.25;;;;;8.69;53.27;103187.06;4940877;28;45720;-74
2022/01/22 03:29:58;;;;;;;;;11.00;10.00;;;;;8.73;53.83;103159.81;4875186;29;45043;-75
2022/01/22 03:32:32;;;;;;;;;15.25;9.50;;;;;8.10;53.85;103062.88;4861740;29;45998;-75
2022/01/22 03:35:08;;;;;;;;;11.50;8.00;;;;;8.35;53.59;103105.56;4896812;28;45029;-75
2022/01/22 03:37:33;;;;;;;;;14.25;11.00;;;;;8.73;53.95;103163.44;4941541;28;45102;-75
2022/01/22 03:39:58;;;;;;;;;9.00;9.00;;;;;8.79;54.28;103162.94;4940380;28;45012;-75
2022/01/22 03:42:24;;;;;;;;;18.25;11.25;;;;;8.78;53.67;103174.44;4943728;28;45845;-74
2022/01/22 03:44:49;;;;;;;;;10.50;8.75;;;;;8.79;53.27;103177.22;4954989;28;44981;-74
2022/01/22 03:47:15;;;;;;;;;8.25;8.25;;;;;8.44;53.63;103116.91;4948133;28;45126;-76
2022/01/22 03:49:40;;;;;;;;;8.00;7.75;;;;;8.68;54.28;103164.84;4930184;28;45010;-74
2022/01/22 03:52:06;;;;;;;;;11.25;11.25;;;;;8.75;53.31;103174.22;4937901;28;45688;-76
2022/01/22 03:54:32;;;;;;;;;11.25;8.75;;;;;8.43;54.11;103107.09;4937068;28;45205;-75
2022/01/22 03:56:57;;;;;;;;;11.50;10.00;;;;;8.81;53.93;103171.97;4954354;28;45251;-75
2022/01/22 03:59:22;;;;;;;;;9.75;9.75;;;;;8.54;53.74;103122.94;4942474;28;45002;-74
2022/01/22 04:04:31;;;;;;;;;9.50;8.00;;;;;8.77;53.97;103170.81;4953478;28;45038;-76
2022/01/22 04:09:27;;;;;;;;;21.25;18.25;;;;;8.71;54.11;103154.41;4948204;28;45099;-74
2022/01/22 04:11:55;;;;;;;;;8.75;8.25;;;;;8.56;53.63;103124.88;4926737;28;46709;-76
2022/01/22 04:14:25;;;;;;;;;9.00;9.00;;;;;8.46;54.47;103106.38;4944217;28;44963;-76
2022/01/22 04:17:38;;;;;;;;;10.25;10.25;;;;;8.63;54.42;103137.84;4944953;28;45327;-76
2022/01/22 04:25:13;;;;;;;;;11.75;9.00;;;;;8.55;54.02;103103.47;4936824;28;44948;-74
2022/01/22 04:27:39;;;;;;;;;8.75;8.75;;;;;8.91;53.94;103152.22;4944048;28;45066;-76
2022/01/22 04:30:05;;;;;;;;;14.00;11.00;;;;;8.94;53.40;103160.47;4942212;28;45010;-76
2022/01/22 04:32:31;;;;;;;;;12.25;12.25;;;;;8.99;53.66;103168.00;4938804;28;46251;-75
2022/01/22 04:34:57;;;;;;;;;12.75;10.00;;;;;9.00;53.31;103161.81;4942511;28;45209;-74
2022/01/22 04:37:24;;;;;;;;;18.25;11.75;;;;;8.68;53.49;103111.53;4923719;28;45132;-75
2022/01/22 04:39:50;;;;;;;;;12.00;11.00;;;;;8.50;53.44;103073.84;4932987;28;45082;-73
2022/01/22 04:42:17;;;;;;;;;14.25;13.00;;;;;8.69;53.44;103112.47;4943669;28;45162;-76
2022/01/22 04:44:55;;;;;;;;;13.75;11.75;;;;;9.00;53.66;103156.47;4941140;28;45115;-75
2022/01/22 04:55:31;;;;;;;;;20.25;15.00;;;;;9.01;53.73;103154.75;4934443;28;45035;-73
2022/01/22 04:57:56;;;;;;;;;15.75;15.75;;;;;9.02;52.64;103165.53;4938039;28;45229;-75
2022/01/22 05:00:22;;;;;;;;;20.75;16.75;;;;;8.93;53.54;103148.88;4953344;28;45105;-75
2022/01/22 05:02:48;;;;;;;;;16.25;14.25;;;;;9.00;53.75;103164.47;4925546;28;46429;-74
2022/01/22 05:05:13;;;;;;;;;17.50;15.75;;;;;8.93;53.25;103161.28;4951651;28;45040;-75
2022/01/22 05:07:38;;;;;;;;;17.25;15.00;;;;;8.92;54.02;103159.44;4939280;28;45159;-74
2022/01/22 05:10:05;;;;;;;;;24.25;17.75;;;;;8.88;53.23;103160.03;4936098;28;45335;-74
2022/01/22 05:12:31;;;;;;;;;16.50;16.00;;;;;8.68;53.91;103130.19;4939110;28;45734;-75
2022/01/22 05:14:56;;;;;;;;;18.25;17.75;;;;;8.61;54.07;103139.50;4938902;28;45180;-75
2022/01/22 05:17:22;;;;;;;;;17.75;14.00;;;;;8.79;53.68;103163.88;4940548;28;45135;-74
2022/01/22 05:19:57;;;;;;;;;23.75;18.25;;;;;8.51;53.99;103102.31;4949395;28;45089;-75
2022/01/22 05:24:53;;;;;;;;;14.75;14.75;;;;;8.86;53.86;103162.59;4946793;28;45043;-75
2022/01/22 05:30:04;;;;;;;;;18.75;17.25;;;;;8.88;54.22;103157.38;4935912;28;45127;-74
2022/01/22 05:38:08;;;;;;;;;17.00;12.00;;;;;8.85;53.78;103172.31;4938349;28;44891;-74
2022/01/22 05:40:35;;;;;;;;;18.50;17.00;;;;;8.85;53.35;103172.31;4940816;28;45170;-74
2022/01/22 05:43:00;;;;;;;;;18.75;15.75;;;;;8.87;53.52;103171.50;4940035;28;45402;-74
2022/01/22 05:45:26;;;;;;;;;23.25;15.00;;;;;8.61;53.68;103111.91;4936486;28;45111;-74
2022/01/22 05:47:51;;;;;;;;;18.50;18.50;;;;;8.92;53.31;103171.00;4943602;28;44984;-75
2022/01/22 05:51:18;;;;;;;;;19.25;17.75;;;;;8.91;53.96;103169.19;4940772;28;45289;-75
2022/01/22 05:53:30;;;;;;;;;25.50;19.00;;;;;8.66;53.85;103138.09;4922166;28;45182;-75
2022/01/22 06:01:07;;;;;;;;;20.75;16.00;;;;;8.89;54.41;103175.19;4939626;28;45017;-75
2022/01/22 06:03:32;;;;;;;;;21.50;18.50;;;;;8.83;53.57;103171.28;4936830;28;45008;-75
2022/01/22 06:05:58;;;;;;;;;20.25;16.25;;;;;8.92;54.02;103188.75;4935428;28;45210;-73
2022/01/22 06:08:29;;;;;;;;;23.25;20.00;;;;;8.85;54.33;103174.97;4935737;28;45000;-73
2022/01/22 06:10:56;;;;;;;;;23.50;17.00;;;;;8.88;53.46;103178.69;4937568;28;45311;-73
2022/01/22 06:13:28;;;;;;;;;19.50;19.00;;;;;8.40;54.25;103087.28;4935012;28;45643;-74
2022/01/22 06:15:54;;;;;;;;;20.25;18.00;;;;;8.63;54.08;103143.19;4938932;28;45059;-73
2022/01/22 06:18:19;;;;;;;;;22.25;17.25;;;;;8.68;53.60;103140.84;4937406;28;45488;-75
2022/01/22 06:20:45;;;;;;;;;18.50;18.50;;;;;8.83;54.06;103155.28;4934051;28;44901;-74
2022/01/22 06:23:10;;;;;;;;;34.25;25.00;;;;;8.96;53.62;103178.44;4937069;28;45653;-74
2022/01/22 06:25:35;;;;;;;;;27.50;21.25;;;;;8.98;54.14;103179.47;4936339;28;45125;-75
2022/01/22 06:28:01;;;;;;;;;21.50;18.25;;;;;8.97;53.54;103177.59;4935651;28;45145;-73
2022/01/22 06:30:27;;;;;;;;;25.50;18.50;;;;;8.74;53.93;103154.59;4934689;28;45083;-74
2022/01/22 06:32:52;;;;;;;;;28.50;18.25;;;;;8.88;52.95;103174.28;4933335;28;46371;-74
2022/01/22 06:35:17;;;;;;;;;24.25;17.25;;;;;9.02;52.92;103188.59;4928753;28;45832;-73
2022/01/22 06:37:43;;;;;;;;;21.25;17.25;;;;;8.78;53.38;103137.13;4938884;28;45167;-75
2022/01/22 06:42:34;;;;;;;;;28.75;21.25;;;;;9.02;53.87;103176.22;4933927;28;45237;-75
2022/01/22 06:45:01;;;;;;;;;22.50;19.25;;;;;8.73;53.51;103131.44;4920362;28;45019;-75
2022/01/22 06:47:28;;;;;;;;;24.75;18.00;;;;;9.02;54.01;103191.25;4941979;28;45141;-74
2022/01/22 06:49:54;;;;;;;;;24.00;22.25;;;;;8.92;53.79;103175.44;4939836;28;44957;-74
2022/01/22 06:52:19;;;;;;;;;23.25;19.00;;;;;9.00;53.41;103191.16;4936303;28;45656;-74
2022/01/22 06:54:45;;;;;;;;;27.75;19.00;;;;;9.02;53.27;103193.94;4932604;28;45314;-73
2022/01/22 06:57:11;;;;;;;;;23.50;18.75;;;;;9.04;54.16;103200.28;4939249;28;45404;-74
2022/01/22 06:59:37;;;;;;;;;21.50;16.50;;;;;9.08;54.22;103197.03;4930546;28;45180;-74
2022/01/22 07:02:03;;;;;;;;;24.25;22.75;;;;;8.90;53.50;103177.97;4931387;28;46602;-73
2022/01/22 07:04:31;;;;;;;;;25.75;19.50;;;;;9.10;53.31;103199.81;4938620;28;45190;-74
2022/01/22 07:06:57;;;;;;;;;32.25;23.00;;;;;8.90;53.88;103161.06;4934637;28;45305;-73
2022/01/22 07:09:22;;;;;;;;;21.00;19.50;;;;;9.13;53.69;103200.97;4930084;28;45273;-74
2022/01/22 07:11:48;;;;;;;;;27.25;19.25;;;;;8.90;53.89;103158.41;4938306;28;45092;-74
2022/01/22 07:14:14;;;;;;;;;27.25;18.75;;;;;8.85;53.85;103147.41;4927054;28;45350;-73
2022/01/22 07:16:39;;;;;;;;;22.50;19.25;;;;;9.11;53.85;103201.69;4930292;28;45444;-73
2022/01/22 07:19:04;;;;;;;;;22.25;20.50;;;;;8.93;53.69;103180.88;4941786;28;45040;-73
2022/01/22 07:21:31;;;;;;;;;17.25;13.75;;;;;9.09;53.12;103195.28;4937152;28;46059;-73
2022/01/22 07:26:29;;;;;;;;;27.50;20.50;;;;;9.10;53.86;103198.06;4946465;28;45272;-73
2022/01/22 07:28:56;;;;;;;;;27.75;20.50;;;;;9.12;53.10;103203.53;4943710;28;45321;-72
2022/01/22 07:31:24;;;;;;;;;23.50;16.00;;;;;9.03;52.78;103188.72;4941485;28;45274;-73
2022/01/22 07:33:50;;;;;;;;;23.50;22.50;;;;;9.10;53.46;103200.75;4939103;28;45302;-73
2022/01/22 07:36:15;;;;;;;;;69.25;51.50;;;;;8.90;54.70;103182.41;4943299;28;44961;-72
2022/01/22 07:38:41;;;;;;;;;32.25;25.00;;;;;9.13;53.92;103208.97;4939214;28;45049;-73
2022/01/22 07:41:07;;;;;;;;;32.25;25.00;;;;;9.15;53.36;103210.00;4938853;28;45009;-72
2022/01/22 07:43:34;;;;;;;;;25.00;18.25;;;;;9.07;53.45;103191.59;4937711;28;45235;-73
2022/01/22 07:46:00;;;;;;;;;22.25;18.50;;;;;9.17;53.09;103210.09;4941252;28;45141;-73
2022/01/22 07:48:25;;;;;;;;;22.50;18.50;;;;;9.16;53.29;103216.28;4944885;28;45089;-74
2022/01/22 07:50:50;;;;;;;;;20.00;18.75;;;;;9.18;53.24;103217.31;4940606;28;45596;-73
2022/01/22 07:53:15;;;;;;;;;21.50;21.25;;;;;8.58;54.09;103120.59;4943856;28;45191;-73
2022/01/22 07:55:41;;;;;;;;;22.75;19.75;;;;;9.13;53.52;103219.63;4941646;28;45138;-72
2022/01/22 07:58:11;;;;;;;;;21.00;18.50;;;;;9.15;53.57;103218.00;4934791;28;45104;-74
2022/01/22 08:00:37;;;;;;;;;19.75;15.75;;;;;9.11;54.02;103217.69;4944520;28;45690;-73
2022/01/22 08:03:03;;;;;;;;;27.25;20.50;;;;;9.13;54.30;103221.38;4934239;28;44927;-74
2022/01/22 08:05:29;;;;;;;;;27.25;21.25;;;;;9.16;54.41;103224.28;4942219;28;45030;-73
2022/01/22 08:07:54;;;;;;;;;24.25;18.00;;;;;8.99;53.96;103196.38;4940272;28;45084;-72
2022/01/22 08:10:20;;;;;;;;;26.75;20.00;;;;;9.01;53.35;103192.09;4946610;28;45571;-72
2022/01/22 08:12:48;;;;;;;;;27.25;23.00;;;;;8.94;53.64;103190.72;4946394;28;45110;-73
2022/01/22 08:15:15;;;;;;;;;26.25;22.75;;;;;9.13;54.04;103235.63;4940085;28;45185;-73
2022/01/22 08:17:41;;;;;;;;;20.50;19.00;;;;;8.96;54.14;103190.81;4938956;28;45114;-73
2022/01/22 08:20:07;;;;;;;;;29.00;24.50;;;;;9.19;53.75;103235.16;4944943;28;45314;-73
2022/01/22 08:22:33;;;;;;;;;18.75;18.25;;;;;9.18;54.06;103239.56;4941390;28;45686;-74
2022/01/22 08:25:00;;;;;;;;;20.25;19.00;;;;;9.10;53.39;103221.16;4940468;28;45126;-73
2022/01/22 08:29:55;;;;;;;;;28.25;25.00;;;;;9.08;53.71;103212.13;4935286;28;45061;-74
2022/01/22 08:37:36;;;;;;;;;33.00;22.00;;;;;9.23;53.82;103253.22;4936551;28;45051;-74
2022/01/22 08:40:04;;;;;;;;;21.50;21.25;;;;;9.23;53.18;103239.91;4935195;28;47224;-75
2022/01/22 08:42:29;;;;;;;;;25.50;19.75;;;;;9.23;53.36;103253.22;4938020;28;45143;-73
2022/01/22 08:44:54;;;;;;;;;29.75;23.50;;;;;8.93;53.41;103210.19;4940929;28;45180;-73
2022/01/22 08:47:21;;;;;;;;;31.25;24.25;;;;;8.77;53.38;103168.16;4944077;28;45208;-74
2022/01/22 08:49:46;;;;;;;;;29.75;25.50;;;;;8.96;53.88;103206.81;4937299;28;45891;-74
2022/01/22 08:52:14;;;;;;;;;15.50;13.25;;;;;9.25;53.68;103261.34;4937454;28;45085;-73
2022/01/22 08:54:41;;;;;;;;;29.25;23.75;;;;;8.87;53.82;103191.06;4940223;28;45052;-74
2022/01/22 08:57:06;;;;;;;;;26.75;19.75;;;;;8.78;53.91;103174.44;4937062;28;45371;-73
2022/01/22 08:59:32;;;;;;;;;26.00;20.75;;;;;9.19;53.95;103245.84;4933097;28;45679;-74
2022/01/22 09:01:59;;;;;;;;;27.25;21.50;;;;;9.27;54.29;103262.38;4937641;28;45329;-72
2022/01/22 09:04:24;;;;;;;;;36.25;29.25;;;;;9.14;53.69;103236.56;4932047;28;45288;-73
2022/01/22 09:06:49;;;;;;;;;26.75;25.25;;;;;9.15;53.89;103250.00;4932579;28;45344;-72
2022/01/22 09:09:15;;;;;;;;;19.75;18.50;;;;;9.24;53.83;103257.75;4931254;28;45688;-73
2022/01/22 09:11:42;;;;;;;;;35.75;27.25;;;;;9.37;53.19;103280.88;4946899;28;44991;-72
2022/01/22 09:14:10;;;;;;;;;30.50;26.50;;;;;9.39;54.22;103277.53;4947679;28;45164;-72
2022/01/22 09:16:36;;;;;;;;;34.00;22.25;;;;;9.39;53.60;103285.53;4941420;28;45223;-72
2022/01/22 09:19:09;;;;;;;;;31.25;24.75;;;;;9.43;53.58;103277.75;4938912;28;45741;-72
2022/01/22 09:21:36;;;;;;;;;23.75;22.50;;;;;9.48;53.71;103279.91;4934820;28;45144;-73
2022/01/22 09:24:02;;;;;;;;;27.00;21.00;;;;;9.49;53.71;103281.78;4938980;28;45053;-73
2022/01/22 09:26:29;;;;;;;;;26.00;22.00;;;;;9.52;52.78;103278.38;4944359;28;45045;-72
2022/01/22 09:28:56;;;;;;;;;24.00;19.00;;;;;9.53;52.66;103275.84;4933080;28;45758;-73
2022/01/22 09:31:22;;;;;;;;;26.00;22.75;;;;;9.16;53.38;103219.84;4936620;28;45274;-72
2022/01/22 09:33:47;;;;;;;;;62.50;48.00;;;;;9.54;53.36;103282.13;4932856;28;45297;-73
2022/01/22 09:36:13;;;;;;;;;49.00;37.75;;;;;9.54;52.88;103292.78;4932000;28;45601;-72
2022/01/22 09:38:38;;;;;;;;;34.00;28.50;;;;;9.46;52.99;103294.91;4931494;28;46167;-71
2022/01/22 09:41:03;;;;;;;;;28.75;27.50;;;;;9.51;53.29;103292.56;4931828;28;45371;-73
2022/01/22 09:43:29;;;;;;;;;32.50;28.00;;;;;9.51;52.42;103301.50;4932875;28;45346;-74
2022/01/22 09:45:54;;;;;;;;;40.25;30.00;;;;;9.36;52.73;103263.03;4931118;28;44962;-74
2022/01/22 09:48:19;;;;;;;;;43.00;31.50;;;;;9.41;52.99;103280.31;4947567;28;45708;-71
2022/01/22 09:50:45;;;;;;;;;34.75;21.75;;;;;9.16;52.78;103229.59;4944723;28;45305;-74
2022/01/22 09:53:10;;;;;;;;;23.75;23.00;;;;;9.60;52.65;103298.56;4945099;28;44970;-72
2022/01/22 09:55:36;;;;;;;;;34.00;27.00;;;;;9.62;52.36;103296.00;4942804;28;45048;-73
2022/01/22 09:58:01;;;;;;;;;32.50;23.75;;;;;9.37;52.65;103247.16;4933280;28;46161;-70
2022/01/22 10:00:27;;;;;;;;;30.75;21.50;;;;;9.63;52.87;103290.75;4928651;28;45024;-71
2022/01/22 10:02:57;;;;;;;;;46.50;33.25;;;;;9.72;52.09;103306.53;4933055;28;45310;-72
2022/01/22 10:05:32;;;;;;;;;26.75;21.25;;;;;9.65;51.90;103290.88;4935884;28;45176;-73
2022/01/22 10:08:18;;;;;;;;;26.75;20.50;;;;;9.74;51.95;103319.16;4942110;28;45626;-73
2022/01/22 10:10:44;;;;;;;;;28.75;25.00;;;;;9.55;51.60;103263.56;4907905;28;45361;-71
2022/01/22 10:13:09;;;;;;;;;26.75;22.75;;;;;9.44;52.22;103248.50;4939951;28;45036;-73
2022/01/22 10:15:35;;;;;;;;;39.75;28.00;;;;;9.58;51.72;103279.75;4939047;28;45471;-74
2022/01/22 10:18:02;;;;;;;;;34.25;33.25;;;;;9.77;51.33;103314.03;4938525;28;45435;-74
2022/01/22 10:20:30;;;;;;;;;45.00;31.00;;;;;9.82;51.15;103305.44;4937477;28;45075;-73
2022/01/22 10:23:22;;;;;;;;;29.25;27.50;;;;;9.42;51.67;103252.81;4952627;28;45263;-73
2022/01/22 10:25:56;;;;;;;;;34.75;29.75;;;;;9.82;51.54;103314.38;4946916;28;45349;-74
2022/01/22 10:28:23;;;;;;;;;39.50;28.75;;;;;9.84;51.98;103309.13;4950842;28;45198;-74
2022/01/22 10:30:55;;;;;;;;;32.25;29.75;;;;;9.71;51.56;103300.25;4946610;28;45356;-73
2022/01/22 10:33:30;;;;;;;;;29.50;24.00;;;;;9.80;51.70;103316.00;4923679;28;45332;-72
2022/01/22 10:36:18;;;;;;;;;26.75;22.75;;;;;9.74;51.90;103318.25;4925061;28;45337;-74
2022/01/22 10:38:46;;;;;;;;;34.75;28.50;;;;;9.67;51.55;103316.88;4943389;28;45845;-74
2022/01/22 10:41:14;;;;;;;;;25.50;21.75;;;;;9.54;52.13;103300.81;4926566;28;45319;-75
2022/01/22 10:43:47;;;;;;;;;34.50;25.25;;;;;9.45;51.81;103286.78;4924939;28;45549;-74
2022/01/22 10:48:54;;;;;;;;;29.00;22.50;;;;;9.39;51.84;103264.19;4934539;28;45445;-72
2022/01/22 10:51:20;;;;;;;;;42.00;28.00;;;;;9.61;51.79;103291.50;4916516;28;45619;-74
2022/01/22 10:53:51;;;;;;;;;31.75;27.25;;;;;9.50;51.85;103264.03;4934121;28;45415;-75
2022/01/22 10:56:19;;;;;;;;;27.75;25.25;;;;;9.65;52.04;103281.16;4920305;28;45607;-74
2022/01/22 10:59:02;;;;;;;;;25.50;20.75;;;;;9.78;52.17;103301.59;4937607;28;47457;-73
2022/01/22 11:01:51;;;;;;;;;30.00;24.50;;;;;9.78;51.91;103297.22;4937313;28;45333;-74
2022/01/22 11:04:21;;;;;;;;;23.25;21.25;;;;;9.63;50.51;103277.41;4941148;28;45414;-72
2022/01/22 11:07:16;;;;;;;;;23.00;18.50;;;;;9.78;51.70;103313.22;4938581;28;45466;-74
2022/01/22 11:09:43;;;;;;;;;29.00;23.50;;;;;9.61;51.38;103273.72;4938066;28;46360;-74
2022/01/22 11:12:09;;;;;;;;;28.50;21.25;;;;;9.81;51.27;103306.25;4939338;28;45546;-73
2022/01/22 11:14:37;;;;;;;;;27.00;24.00;;;;;9.46;51.35;103241.53;4952954;28;45277;-71
2022/01/22 11:17:05;;;;;;;;;18.75;18.25;;;;;9.43;51.03;103235.97;4948919;28;45370;-73
2022/01/22 11:19:33;;;;;;;;;22.75;19.25;;;;;9.75;51.81;103280.03;4951538;28;45300;-73
2022/01/22 11:22:03;;;;;;;;;28.00;21.25;;;;;9.40;51.29;103226.03;4941187;28;45542;-74
2022/01/22 11:24:34;;;;;;;;;32.50;26.50;;;;;9.56;50.75;103251.13;4941994;28;45525;-74
2022/01/22 11:27:02;;;;;;;;;28.00;21.50;;;;;9.61;50.74;103259.47;4945934;28;45214;-75
2022/01/22 11:29:37;;;;;;;;;20.50;17.75;;;;;9.68;51.55;103269.75;4940084;28;45770;-74
2022/01/22 11:32:09;;;;;;;;;23.00;19.25;;;;;9.67;50.53;103258.16;4946023;28;45520;-72
2022/01/22 11:34:36;;;;;;;;;21.75;19.75;;;;;9.82;51.10;103266.31;4927329;28;45537;-74
2022/01/22 11:37:17;;;;;;;;;26.50;20.25;;;;;9.95;51.13;103286.78;4918922;28;45578;-74
2022/01/22 11:39:43;;;;;;;;;23.50;21.00;;;;;9.77;50.89;103249.97;4932460;28;45525;-73
2022/01/22 11:42:09;;;;;;;;;27.00;20.50;;;;;9.80;50.44;103246.59;4934529;28;45375;-75
2022/01/22 11:44:41;;;;;;;;;30.75;24.25;;;;;10.03;50.67;103277.56;4918044;28;45036;-73
2022/01/22 11:47:20;;;;;;;;;34.75;25.25;;;;;10.06;50.77;103275.06;4922707;28;45451;-72
2022/01/22 11:50:24;;;;;;;;;24.00;20.00;;;;;10.15;50.48;103277.47;4918340;28;46137;-73
2022/01/22 11:52:49;;;;;;;;;30.25;23.75;;;;;10.14;50.76;103275.63;4817880;29;45286;-72
2022/01/22 11:55:16;;;;;;;;;21.25;19.75;;;;;10.11;50.49;103281.69;4832999;29;45426;-72
2022/01/22 11:57:45;;;;;;;;;27.75;21.50;;;;;9.76;50.46;103218.72;4887052;28;45503;-73
2022/01/22 12:00:17;;;;;;;;;28.75;24.00;;;;;10.11;50.72;103281.69;4944006;28;47019;-73
2022/01/22 12:02:42;;;;;;;;;25.75;21.25;;;;;9.90;50.28;103224.09;4943150;28;45299;-76
2022/01/22 12:05:08;;;;;;;;;26.00;22.00;;;;;10.17;50.21;103275.84;4937913;28;45505;-74
2022/01/22 12:07:35;;;;;;;;;26.50;20.00;;;;;10.22;50.55;103271.72;4936584;28;45387;-74
2022/01/22 12:10:20;;;;;;;;;16.25;15.00;;;;;10.22;50.24;103261.03;4937694;28;47058;-72
2022/01/22 12:15:19;;;;;;;;;40.25;33.25;;;;;10.12;50.26;103240.78;4941300;28;45705;-73
2022/01/22 12:17:52;;;;;;;;;23.00;20.25;;;;;10.08;49.98;103220.03;4937434;28;45310;-73
2022/01/22 12:20:41;;;;;;;;;21.50;18.25;;;;;10.32;49.78;103266.22;4937563;28;47143;-74
2022/01/22 12:23:15;;;;;;;;;26.00;24.75;;;;;10.34;49.80;103260.97;4940025;28;45454;-73
2022/01/22 12:25:40;;;;;;;;;32.75;26.50;;;;;10.38;50.03;103257.72;4923414;28;45369;-74
2022/01/22 12:28:45;;;;;;;;;22.75;21.25;;;;;10.36;50.00;103254.00;4928742;28;45624;-74
2022/01/22 12:31:17;;;;;;;;;26.75;23.75;;;;;10.42;50.01;103249.06;4940623;28;45334;-73
2022/01/22 12:33:46;;;;;;;;;27.00;24.00;;;;;10.38;49.63;103239.00;4940545;28;45490;-73
2022/01/22 12:36:18;;;;;;;;;22.50;20.00;;;;;10.47;49.56;103255.63;4926674;28;45395;-74
2022/01/22 12:38:56;;;;;;;;;37.50;27.25;;;;;10.27;49.94;103226.63;4925447;28;45487;-74
2022/01/22 12:41:48;;;;;;;;;23.50;22.75;;;;;10.43;49.33;103242.00;4911652;28;47650;-72
2022/01/22 12:44:45;;;;;;;;;31.25;22.00;;;;;10.36;49.91;103216.59;4920993;28;45344;-73
2022/01/22 12:47:06;;;;;;;;;28.75;22.75;;;;;10.43;49.31;103212.59;4925597;28;45020;-73
2022/01/22 12:49:33;;;;;;;;;28.00;23.25;;;;;10.49;49.55;103223.66;4928813;28;45541;-72
2022/01/22 12:52:05;;;;;;;;;21.00;16.25;;;;;9.99;49.39;103141.94;4921891;28;46660;-73
2022/01/22 12:54:37;;;;;;;;;22.25;19.75;;;;;10.29;49.22;103191.16;4918990;28;45725;-73
2022/01/22 12:57:09;;;;;;;;;33.50;26.75;;;;;10.25;49.66;103166.81;4918960;28;45952;-73
2022/01/22 12:59:51;;;;;;;;;23.75;20.25;;;;;10.46;49.75;103196.72;4918947;28;45284;-72
2022/01/22 13:02:18;;;;;;;;;35.75;26.50;;;;;10.27;49.34;103152.72;4923298;28;45415;-74